sensor_id;sensor_type;location;lat;lon;timestamp;pressure;altitude;pressure_sealevel;temperature;humidity
61484;BME280;47349;55.640;37.692;2022-11-02T00:01:20;99056.84;;;1.69;83.57
61484;BME280;47349;55.640;37.692;2022-11-02T00:03:47;99038.66;;;1.66;83.48
61484;BME280;47349;55.640;37.692;2022-11-02T00:06:14;99058.44;;;1.81;83.32
61484;BME280;47349;55.640;37.692;2022-11-02T00:08:41;99054.81;;;1.82;83.65
61484;BME280;47349;55.640;37.692;2022-11-02T00:11:09;99030.00;;;1.64;83.57
61484;BME280;47349;55.640;37.692;2022-11-02T00:13:37;99059.28;;;1.91;83.27
61484;BME280;47349;55.640;37.692;2022-11-02T00:16:07;99025.31;;;1.77;83.28
61484;BME280;47349;55.640;37.692;2022-11-02T00:18:35;99051.22;;;1.93;82.79
61484;BME280;47349;55.640;37.692;2022-11-02T00:21:03;99051.63;;;1.88;82.96
61484;BME280;47349;55.640;37.692;2022-11-02T00:23:31;99052.19;;;1.92;83.12
61484;BME280;47349;55.640;37.692;2022-11-02T00:26:00;99050.69;;;1.89;82.72
61484;BME280;47349;55.640;37.692;2022-11-02T00:28:29;99046.75;;;1.93;82.96
61484;BME280;47349;55.640;37.692;2022-11-02T00:30:56;99008.50;;;1.78;82.97
61484;BME280;47349;55.640;37.692;2022-11-02T00:33:27;99027.00;;;1.88;82.58
61484;BME280;47349;55.640;37.692;2022-11-02T00:35:55;99005.84;;;1.78;82.97
61484;BME280;47349;55.640;37.692;2022-11-02T00:38:27;99036.91;;;1.95;82.66
61484;BME280;47349;55.640;37.692;2022-11-02T00:40:55;99016.41;;;1.78;82.71
61484;BME280;47349;55.640;37.692;2022-11-02T00:43:22;99030.19;;;1.82;82.57
61484;BME280;47349;55.640;37.692;2022-11-02T00:45:50;99027.28;;;1.75;82.77
61484;BME280;47349;55.640;37.692;2022-11-02T00:48:18;99010.84;;;1.71;82.94
61484;BME280;47349;55.640;37.692;2022-11-02T00:50:45;99027.31;;;1.85;82.88
61484;BME280;47349;55.640;37.692;2022-11-02T00:53:14;99016.28;;;1.70;82.93
61484;BME280;47349;55.640;37.692;2022-11-02T00:55:49;99049.28;;;1.85;83.18
61484;BME280;47349;55.640;37.692;2022-11-02T00:58:17;99033.00;;;1.80;83.57
61484;BME280;47349;55.640;37.692;2022-11-02T01:00:44;99019.75;;;1.70;83.08
61484;BME280;47349;55.640;37.692;2022-11-02T01:03:11;99037.16;;;1.83;83.37
61484;BME280;47349;55.640;37.692;2022-11-02T01:05:38;99021.44;;;1.71;83.41
61484;BME280;47349;55.640;37.692;2022-11-02T01:08:07;99024.47;;;1.67;83.40
61484;BME280;47349;55.640;37.692;2022-11-02T01:10:35;99042.16;;;1.76;83.61
61484;BME280;47349;55.640;37.692;2022-11-02T01:13:03;99010.00;;;1.61;83.71
61484;BME280;47349;55.640;37.692;2022-11-02T01:15:30;99012.50;;;1.63;83.91
61484;BME280;47349;55.640;37.692;2022-11-02T01:17:57;99016.16;;;1.71;83.10
61484;BME280;47349;55.640;37.692;2022-11-02T01:20:26;99016.16;;;1.71;83.42
61484;BME280;47349;55.640;37.692;2022-11-02T01:22:54;99002.78;;;1.73;83.65
61484;BME280;47349;55.640;37.692;2022-11-02T01:25:23;99002.78;;;1.73;83.23
61484;BME280;47349;55.640;37.692;2022-11-02T01:27:50;99012.69;;;1.80;83.25
61484;BME280;47349;55.640;37.692;2022-11-02T01:30:17;99021.19;;;1.94;83.49
61484;BME280;47349;55.640;37.692;2022-11-02T01:32:44;98999.88;;;1.76;82.94
61484;BME280;47349;55.640;37.692;2022-11-02T01:35:12;99009.88;;;1.72;82.58
61484;BME280;47349;55.640;37.692;2022-11-02T01:37:39;99007.25;;;1.82;82.72
61484;BME280;47349;55.640;37.692;2022-11-02T01:40:08;99006.41;;;1.82;82.61
61484;BME280;47349;55.640;37.692;2022-11-02T01:42:35;99012.84;;;1.98;82.33
61484;BME280;47349;55.640;37.692;2022-11-02T01:45:03;99004.22;;;1.96;81.85
61484;BME280;47349;55.640;37.692;2022-11-02T01:47:40;99006.44;;;1.91;81.98
61484;BME280;47349;55.640;37.692;2022-11-02T01:50:20;98991.97;;;1.86;82.24
61484;BME280;47349;55.640;37.692;2022-11-02T01:52:50;99004.34;;;1.85;82.51
61484;BME280;47349;55.640;37.692;2022-11-02T01:55:21;99016.44;;;1.97;82.98
61484;BME280;47349;55.640;37.692;2022-11-02T01:58:10;98993.78;;;1.75;83.23
61484;BME280;47349;55.640;37.692;2022-11-02T02:00:39;98994.44;;;1.77;83.02
61484;BME280;47349;55.640;37.692;2022-11-02T02:03:12;99017.56;;;1.95;82.88
61484;BME280;47349;55.640;37.692;2022-11-02T02:05:48;99013.69;;;1.89;82.86
61484;BME280;47349;55.640;37.692;2022-11-02T02:08:19;98998.34;;;1.83;83.25
61484;BME280;47349;55.640;37.692;2022-11-02T02:10:49;99011.88;;;1.99;83.20
61484;BME280;47349;55.640;37.692;2022-11-02T02:13:17;99006.44;;;1.91;82.93
61484;BME280;47349;55.640;37.692;2022-11-02T02:18:19;99007.69;;;2.06;83.18
61484;BME280;47349;55.640;37.692;2022-11-02T02:28:34;99011.19;;;2.17;82.97
61484;BME280;47349;55.640;37.692;2022-11-02T02:31:36;99008.94;;;2.12;83.04
61484;BME280;47349;55.640;37.692;2022-11-02T02:36:57;99020.09;;;2.16;82.28
61484;BME280;47349;55.640;37.692;2022-11-02T02:47:35;99011.75;;;2.11;82.89
61484;BME280;47349;55.640;37.692;2022-11-02T02:50:12;99016.34;;;2.09;82.54
61484;BME280;47349;55.640;37.692;2022-11-02T02:52:42;98985.03;;;1.94;82.36
61484;BME280;47349;55.640;37.692;2022-11-02T02:55:17;99000.19;;;2.02;82.53
61484;BME280;47349;55.640;37.692;2022-11-02T02:58:01;98993.91;;;2.03;82.21
61484;BME280;47349;55.640;37.692;2022-11-02T03:00:32;99023.56;;;2.16;82.16
61484;BME280;47349;55.640;37.692;2022-11-02T03:03:03;99011.47;;;2.14;82.29
61484;BME280;47349;55.640;37.692;2022-11-02T03:05:33;98976.69;;;1.89;82.39
61484;BME280;47349;55.640;37.692;2022-11-02T03:08:10;99000.06;;;1.94;82.87
61484;BME280;47349;55.640;37.692;2022-11-02T03:11:04;99002.81;;;1.92;82.60
61484;BME280;47349;55.640;37.692;2022-11-02T03:19:37;99018.41;;;1.95;82.92
61484;BME280;47349;55.640;37.692;2022-11-02T03:22:29;99019.25;;;1.96;82.86
61484;BME280;47349;55.640;37.692;2022-11-02T03:25:28;99018.97;;;1.89;83.08
61484;BME280;47349;55.640;37.692;2022-11-02T03:30:43;99005.84;;;1.78;83.27
61484;BME280;47349;55.640;37.692;2022-11-02T03:33:23;99013.38;;;1.83;83.71
61484;BME280;47349;55.640;37.692;2022-11-02T03:38:24;98992.63;;;1.68;84.28
61484;BME280;47349;55.640;37.692;2022-11-02T03:40:56;98977.91;;;1.66;84.82
61484;BME280;47349;55.640;37.692;2022-11-02T03:43:25;98996.53;;;1.74;84.80
61484;BME280;47349;55.640;37.692;2022-11-02T03:45:55;98999.59;;;1.60;84.59
61484;BME280;47349;55.640;37.692;2022-11-02T03:48:29;99032.00;;;1.81;85.20
61484;BME280;47349;55.640;37.692;2022-11-02T03:51:02;99016.16;;;1.81;85.45
61484;BME280;47349;55.640;37.692;2022-11-02T03:53:43;98978.56;;;1.58;85.55
61484;BME280;47349;55.640;37.692;2022-11-02T03:56:21;98997.63;;;1.62;85.92
61484;BME280;47349;55.640;37.692;2022-11-02T03:58:51;99009.63;;;1.75;86.50
61484;BME280;47349;55.640;37.692;2022-11-02T04:01:19;98999.88;;;1.66;86.47
61484;BME280;47349;55.640;37.692;2022-11-02T04:03:50;98981.75;;;1.42;87.12
61484;BME280;47349;55.640;37.692;2022-11-02T04:06:32;99007.22;;;1.63;86.93
61484;BME280;47349;55.640;37.692;2022-11-02T04:09:02;98997.38;;;1.65;86.82
61484;BME280;47349;55.640;37.692;2022-11-02T04:11:46;99015.31;;;1.71;86.76
61484;BME280;47349;55.640;37.692;2022-11-02T04:14:46;99016.97;;;1.72;87.33
61484;BME280;47349;55.640;37.692;2022-11-02T04:17:17;99028.94;;;1.76;87.44
61484;BME280;47349;55.640;37.692;2022-11-02T04:20:10;98993.34;;;1.70;87.68
61484;BME280;47349;55.640;37.692;2022-11-02T04:22:38;99013.66;;;1.79;87.29
61484;BME280;47349;55.640;37.692;2022-11-02T04:25:25;98998.63;;;1.70;87.20
61484;BME280;47349;55.640;37.692;2022-11-02T04:27:55;99014.34;;;1.82;87.20
61484;BME280;47349;55.640;37.692;2022-11-02T04:30:48;98996.66;;;1.63;86.72
61484;BME280;47349;55.640;37.692;2022-11-02T04:33:19;99004.59;;;1.72;86.58
61484;BME280;47349;55.640;37.692;2022-11-02T04:36:10;99015.03;;;1.74;86.70
61484;BME280;47349;55.640;37.692;2022-11-02T04:38:56;98996.09;;;1.59;86.97
61484;BME280;47349;55.640;37.692;2022-11-02T04:41:38;99005.28;;;1.65;87.17
61484;BME280;47349;55.640;37.692;2022-11-02T04:44:43;98980.78;;;1.53;87.50
61484;BME280;47349;55.640;37.692;2022-11-02T04:47:26;98956.72;;;1.37;87.50
61484;BME280;47349;55.640;37.692;2022-11-02T04:49:56;98990.38;;;1.54;86.56
61484;BME280;47349;55.640;37.692;2022-11-02T04:52:31;98991.53;;;1.61;87.04
61484;BME280;47349;55.640;37.692;2022-11-02T04:54:59;98959.06;;;1.40;86.81
61484;BME280;47349;55.640;37.692;2022-11-02T04:57:28;98998.19;;;1.56;85.84
61484;BME280;47349;55.640;37.692;2022-11-02T04:59:58;99000.13;;;1.63;86.48
61484;BME280;47349;55.640;37.692;2022-11-02T05:02:25;98997.06;;;1.58;85.67
61484;BME280;47349;55.640;37.692;2022-11-02T05:04:54;98971.06;;;1.53;85.03
61484;BME280;47349;55.640;37.692;2022-11-02T05:07:21;99000.69;;;1.67;84.01
61484;BME280;47349;55.640;37.692;2022-11-02T05:09:49;98991.94;;;1.66;84.46
61484;BME280;47349;55.640;37.692;2022-11-02T05:12:16;98998.59;;;1.61;85.72
61484;BME280;47349;55.640;37.692;2022-11-02T05:14:46;98976.91;;;1.57;85.30
61484;BME280;47349;55.640;37.692;2022-11-02T05:17:13;98999.16;;;1.74;84.79
61484;BME280;47349;55.640;37.692;2022-11-02T05:19:42;99001.69;;;1.75;84.70
61484;BME280;47349;55.640;37.692;2022-11-02T05:22:10;98972.19;;;1.61;84.88
61484;BME280;47349;55.640;37.692;2022-11-02T05:24:37;98984.00;;;1.57;84.76
61484;BME280;47349;55.640;37.692;2022-11-02T05:27:08;98978.03;;;1.64;84.76
61484;BME280;47349;55.640;37.692;2022-11-02T05:29:46;98984.28;;;1.73;85.21
61484;BME280;47349;55.640;37.692;2022-11-02T05:32:28;98961.59;;;1.41;86.14
61484;BME280;47349;55.640;37.692;2022-11-02T05:35:00;98984.00;;;1.57;85.79
61484;BME280;47349;55.640;37.692;2022-11-02T05:37:31;98985.25;;;1.62;85.19
61484;BME280;47349;55.640;37.692;2022-11-02T05:40:01;99001.97;;;1.82;85.17
61484;BME280;47349;55.640;37.692;2022-11-02T05:42:30;98991.69;;;1.69;84.97
61484;BME280;47349;55.640;37.692;2022-11-02T05:44:58;99007.97;;;1.84;84.81
61484;BME280;47349;55.640;37.692;2022-11-02T05:47:30;99002.53;;;1.76;84.41
61484;BME280;47349;55.640;37.692;2022-11-02T05:49:58;99011.66;;;1.62;84.54
61484;BME280;47349;55.640;37.692;2022-11-02T05:52:25;99002.50;;;1.57;84.82
61484;BME280;47349;55.640;37.692;2022-11-02T05:54:53;98983.84;;;1.58;85.12
61484;BME280;47349;55.640;37.692;2022-11-02T05:57:22;98992.22;;;1.73;84.96
61484;BME280;47349;55.640;37.692;2022-11-02T05:59:58;99006.56;;;1.80;84.03
61484;BME280;47349;55.640;37.692;2022-11-02T06:02:26;98983.44;;;1.63;83.82
61484;BME280;47349;55.640;37.692;2022-11-02T06:04:53;99011.13;;;1.78;84.13
61484;BME280;47349;55.640;37.692;2022-11-02T06:07:21;99000.31;;;1.81;84.17
61484;BME280;47349;55.640;37.692;2022-11-02T06:09:49;98980.53;;;1.66;83.60
61484;BME280;47349;55.640;37.692;2022-11-02T06:12:16;98982.22;;;1.67;84.13
61484;BME280;47349;55.640;37.692;2022-11-02T06:14:43;98983.88;;;1.68;84.00
61484;BME280;47349;55.640;37.692;2022-11-02T06:17:10;99003.94;;;1.80;84.16
61484;BME280;47349;55.640;37.692;2022-11-02T06:19:37;98992.94;;;1.85;84.49
61484;BME280;47349;55.640;37.692;2022-11-02T06:22:05;98976.09;;;1.76;84.33
61484;BME280;47349;55.640;37.692;2022-11-02T06:24:33;98954.41;;;1.63;84.18
61484;BME280;47349;55.640;37.692;2022-11-02T06:27:00;98965.69;;;1.84;84.56
61484;BME280;47349;55.640;37.692;2022-11-02T06:29:36;99014.22;;;2.02;83.98
61484;BME280;47349;55.640;37.692;2022-11-02T06:32:04;98978.91;;;1.84;84.13
61484;BME280;47349;55.640;37.692;2022-11-02T06:34:32;98987.09;;;1.81;84.41
61484;BME280;47349;55.640;37.692;2022-11-02T06:36:59;99007.84;;;1.95;84.47
61484;BME280;47349;55.640;37.692;2022-11-02T06:39:26;98994.47;;;1.87;84.31
61484;BME280;47349;55.640;37.692;2022-11-02T06:41:54;98993.38;;;1.99;84.39
61484;BME280;47349;55.640;37.692;2022-11-02T06:44:21;99005.63;;;2.10;84.58
61484;BME280;47349;55.640;37.692;2022-11-02T06:46:48;99000.59;;;2.17;84.42
61484;BME280;47349;55.640;37.692;2022-11-02T06:49:15;99000.06;;;2.23;84.34
61484;BME280;47349;55.640;37.692;2022-11-02T06:51:42;99006.19;;;2.23;84.33
61484;BME280;47349;55.640;37.692;2022-11-02T06:54:12;99011.19;;;2.17;84.25
61484;BME280;47349;55.640;37.692;2022-11-02T06:56:40;99010.34;;;2.16;84.19
61484;BME280;47349;55.640;37.692;2022-11-02T06:59:08;99020.50;;;2.21;83.68
61484;BME280;47349;55.640;37.692;2022-11-02T07:01:36;98998.66;;;2.19;84.36
61484;BME280;47349;55.640;37.692;2022-11-02T07:04:04;98976.94;;;1.76;84.54
61484;BME280;47349;55.640;37.692;2022-11-02T07:06:32;98990.59;;;1.91;85.37
61484;BME280;47349;55.640;37.692;2022-11-02T07:08:59;98990.31;;;1.94;85.32
61484;BME280;47349;55.640;37.692;2022-11-02T07:12:09;99000.91;;;2.14;84.24
61484;BME280;47349;55.640;37.692;2022-11-02T07:14:37;98989.50;;;2.03;83.57
61484;BME280;47349;55.640;37.692;2022-11-02T07:17:05;98993.50;;;2.08;83.53
61484;BME280;47349;55.640;37.692;2022-11-02T07:19:32;98991.72;;;1.98;83.51
61484;BME280;47349;55.640;37.692;2022-11-02T07:21:59;99021.22;;;2.23;83.42
61484;BME280;47349;55.640;37.692;2022-11-02T07:24:29;98997.28;;;2.05;83.75
61484;BME280;47349;55.640;37.692;2022-11-02T07:26:56;99008.69;;;2.05;84.23
61484;BME280;47349;55.640;37.692;2022-11-02T07:29:24;99014.66;;;2.08;84.08
61484;BME280;47349;55.640;37.692;2022-11-02T07:31:51;99019.94;;;2.08;84.47
61484;BME280;47349;55.640;37.692;2022-11-02T07:34:18;99024.53;;;1.96;84.03
61484;BME280;47349;55.640;37.692;2022-11-02T07:36:54;98998.91;;;1.77;84.31
61484;BME280;47349;55.640;37.692;2022-11-02T07:39:22;99011.13;;;1.78;84.47
61484;BME280;47349;55.640;37.692;2022-11-02T07:41:50;99024.94;;;1.91;84.41
61484;BME280;47349;55.640;37.692;2022-11-02T07:44:18;99026.34;;;1.95;84.94
61484;BME280;47349;55.640;37.692;2022-11-02T07:46:54;99017.00;;;1.91;84.49
61484;BME280;47349;55.640;37.692;2022-11-02T07:49:35;99023.97;;;2.02;83.84
61484;BME280;47349;55.640;37.692;2022-11-02T07:52:03;99011.97;;;1.88;83.19
61484;BME280;47349;55.640;37.692;2022-11-02T07:54:30;99032.44;;;1.96;83.59
61484;BME280;47349;55.640;37.692;2022-11-02T07:56:57;99011.69;;;1.72;84.16
61484;BME280;47349;55.640;37.692;2022-11-02T07:59:24;99005.56;;;1.62;83.77
61484;BME280;47349;55.640;37.692;2022-11-02T08:01:51;99028.13;;;1.75;84.45
61484;BME280;47349;55.640;37.692;2022-11-02T08:04:18;99053.31;;;1.89;84.18
61484;BME280;47349;55.640;37.692;2022-11-02T08:06:45;99045.38;;;1.89;83.88
61484;BME280;47349;55.640;37.692;2022-11-02T08:09:12;99030.34;;;1.80;84.13
61484;BME280;47349;55.640;37.692;2022-11-02T08:11:41;99032.31;;;1.97;84.49
61484;BME280;47349;55.640;37.692;2022-11-02T08:14:09;99012.53;;;1.82;83.79
61484;BME280;47349;55.640;37.692;2022-11-02T08:16:37;99019.94;;;1.98;83.55
61484;BME280;47349;55.640;37.692;2022-11-02T08:19:07;99040.56;;;2.14;82.80
61484;BME280;47349;55.640;37.692;2022-11-02T08:21:37;99031.47;;;2.06;82.45
61484;BME280;47349;55.640;37.692;2022-11-02T08:24:04;99009.75;;;1.93;82.51
61484;BME280;47349;55.640;37.692;2022-11-02T08:26:32;99023.97;;;1.92;82.96
61484;BME280;47349;55.640;37.692;2022-11-02T08:28:59;99035.34;;;1.93;83.32
61484;BME280;47349;55.640;37.692;2022-11-02T08:31:26;99002.25;;;1.79;83.48
61484;BME280;47349;55.640;37.692;2022-11-02T08:33:53;99031.78;;;1.94;83.16
61484;BME280;47349;55.640;37.692;2022-11-02T08:36:21;99009.22;;;1.90;83.00
61484;BME280;47349;55.640;37.692;2022-11-02T08:38:48;98991.00;;;1.87;82.65
61484;BME280;47349;55.640;37.692;2022-11-02T08:41:15;99012.88;;;2.18;82.17
61484;BME280;47349;55.640;37.692;2022-11-02T08:43:42;99022.72;;;2.16;82.50
61484;BME280;47349;55.640;37.692;2022-11-02T08:46:10;98984.19;;;1.94;82.44
61484;BME280;47349;55.640;37.692;2022-11-02T08:48:42;99012.88;;;2.18;81.92
61484;BME280;47349;55.640;37.692;2022-11-02T08:51:09;99019.81;;;2.19;81.59
61484;BME280;47349;55.640;37.692;2022-11-02T08:53:37;99001.44;;;2.08;82.45
61484;BME280;47349;55.640;37.692;2022-11-02T08:56:05;98994.63;;;2.15;82.53
61484;BME280;47349;55.640;37.692;2022-11-02T08:58:32;98992.81;;;2.25;81.76
61484;BME280;47349;55.640;37.692;2022-11-02T09:01:00;99018.84;;;2.49;81.60
61484;BME280;47349;55.640;37.692;2022-11-02T09:03:27;99028.44;;;2.50;80.71
61484;BME280;47349;55.640;37.692;2022-11-02T09:05:59;99002.81;;;2.31;80.85
61484;BME280;47349;55.640;37.692;2022-11-02T09:08:28;98998.66;;;2.19;81.67
61484;BME280;47349;55.640;37.692;2022-11-02T09:11:01;99023.97;;;2.31;81.94
61484;BME280;47349;55.640;37.692;2022-11-02T09:13:29;99005.06;;;2.26;81.35
61484;BME280;47349;55.640;37.692;2022-11-02T09:15:58;99007.59;;;2.27;81.53
61484;BME280;47349;55.640;37.692;2022-11-02T09:18:25;99023.56;;;2.45;80.96
61484;BME280;47349;55.640;37.692;2022-11-02T09:20:52;99010.34;;;2.26;81.12
61484;BME280;47349;55.640;37.692;2022-11-02T09:23:20;99025.63;;;2.32;81.22
61484;BME280;47349;55.640;37.692;2022-11-02T09:25:48;99000.91;;;2.14;81.95
61484;BME280;47349;55.640;37.692;2022-11-02T09:28:16;99022.31;;;2.20;81.70
61484;BME280;47349;55.640;37.692;2022-11-02T09:30:43;99018.56;;;2.33;81.82
61484;BME280;47349;55.640;37.692;2022-11-02T09:33:11;99009.38;;;2.27;81.25
61484;BME280;47349;55.640;37.692;2022-11-02T09:35:42;98993.91;;;2.22;81.32
61484;BME280;47349;55.640;37.692;2022-11-02T09:38:10;99006.31;;;2.22;81.45
61484;BME280;47349;55.640;37.692;2022-11-02T09:40:59;98995.31;;;1.97;82.08
61484;BME280;47349;55.640;37.692;2022-11-02T09:43:51;99011.19;;;2.17;81.76
61484;BME280;47349;55.640;37.692;2022-11-02T09:48:51;99003.66;;;2.41;81.49
61484;BME280;47349;55.640;37.692;2022-11-02T09:51:22;99009.91;;;2.40;80.75
61484;BME280;47349;55.640;37.692;2022-11-02T09:54:05;99017.72;;;2.32;80.40
61484;BME280;47349;55.640;37.692;2022-11-02T09:56:41;98993.91;;;2.13;81.23
61484;BME280;47349;55.640;37.692;2022-11-02T09:59:20;99010.22;;;2.18;81.50
61484;BME280;47349;55.640;37.692;2022-11-02T10:15:24;98996.72;;;2.11;80.89
61484;BME280;47349;55.640;37.692;2022-11-02T10:18:01;98990.44;;;2.31;80.92
61484;BME280;47349;55.640;37.692;2022-11-02T10:20:40;98984.47;;;2.29;80.29
61484;BME280;47349;55.640;37.692;2022-11-02T10:23:31;98994.78;;;2.33;80.81
61484;BME280;47349;55.640;37.692;2022-11-02T10:26:01;98986.28;;;2.19;81.06
61484;BME280;47349;55.640;37.692;2022-11-02T10:28:34;99006.72;;;2.37;81.09
61484;BME280;47349;55.640;37.692;2022-11-02T10:31:02;99006.44;;;2.40;80.69
61484;BME280;47349;55.640;37.692;2022-11-02T10:33:41;99007.28;;;2.21;81.41
61484;BME280;47349;55.640;37.692;2022-11-02T10:39:05;99004.38;;;2.24;80.83
61484;BME280;47349;55.640;37.692;2022-11-02T10:47:02;99024.41;;;2.36;80.33
61484;BME280;47349;55.640;37.692;2022-11-02T10:52:16;99026.75;;;2.00;81.40
61484;BME280;47349;55.640;37.692;2022-11-02T10:54:44;99027.84;;;1.98;81.69
61484;BME280;47349;55.640;37.692;2022-11-02T10:57:21;98996.16;;;2.08;81.51
61484;BME280;47349;55.640;37.692;2022-11-02T11:03:12;99001.16;;;2.11;80.21
61484;BME280;47349;55.640;37.692;2022-11-02T11:11:23;99008.69;;;2.25;80.22
61484;BME280;47349;55.640;37.692;2022-11-02T11:13:57;99016.75;;;2.33;79.13
61484;BME280;47349;55.640;37.692;2022-11-02T11:16:54;98992.56;;;2.18;78.17
61484;BME280;47349;55.640;37.692;2022-11-02T11:19:34;98993.38;;;2.09;78.36
61484;BME280;47349;55.640;37.692;2022-11-02T11:22:22;98999.91;;;1.95;78.15
61484;BME280;47349;55.640;37.692;2022-11-02T11:24:50;99009.66;;;2.04;78.54
61484;BME280;47349;55.640;37.692;2022-11-02T11:27:20;98999.19;;;2.03;79.16
61484;BME280;47349;55.640;37.692;2022-11-02T11:29:56;98985.03;;;1.94;77.63
61484;BME280;47349;55.640;37.692;2022-11-02T11:32:25;99028.72;;;1.98;77.04
61484;BME280;47349;55.640;37.692;2022-11-02T11:35:05;99014.09;;;1.94;77.34
61484;BME280;47349;55.640;37.692;2022-11-02T11:37:34;98996.28;;;1.87;77.98
61484;BME280;47349;55.640;37.692;2022-11-02T11:40:04;99011.19;;;2.17;77.48
61484;BME280;47349;55.640;37.692;2022-11-02T11:42:35;99006.88;;;2.35;77.70
61484;BME280;47349;55.640;37.692;2022-11-02T11:47:37;99018.84;;;2.29;76.62
61484;BME280;47349;55.640;37.692;2022-11-02T11:50:14;98987.25;;;2.09;76.46
61484;BME280;47349;55.640;37.692;2022-11-02T11:53:08;98993.50;;;1.98;77.83
61484;BME280;47349;55.640;37.692;2022-11-02T11:55:45;99046.63;;;1.85;76.93
61484;BME280;47349;55.640;37.692;2022-11-02T12:03:56;99028.31;;;1.53;77.21
61484;BME280;47349;55.640;37.692;2022-11-02T12:25:17;99012.50;;;1.63;76.98
61484;BME280;47349;55.640;37.692;2022-11-02T12:28:02;99026.59;;;1.83;76.80
61484;BME280;47349;55.640;37.692;2022-11-02T12:33:47;99028.91;;;1.57;77.06
61484;BME280;47349;55.640;37.692;2022-11-02T12:39:06;99035.78;;;1.38;77.33
61484;BME280;47349;55.640;37.692;2022-11-02T12:41:45;99030.97;;;1.13;77.27
61484;BME280;47349;55.640;37.692;2022-11-02T12:55:23;99049.59;;;1.21;78.21
61484;BME280;47349;55.640;37.692;2022-11-02T12:57:59;99035.59;;;0.99;77.94
61484;BME280;47349;55.640;37.692;2022-11-02T13:00:27;99060.69;;;1.15;78.15
61484;BME280;47349;55.640;37.692;2022-11-02T13:05:50;99030.56;;;1.17;77.39
61484;BME280;47349;55.640;37.692;2022-11-02T13:08:25;99035.25;;;1.14;78.07
61484;BME280;47349;55.640;37.692;2022-11-02T13:10:59;99056.41;;;1.23;78.34
61484;BME280;47349;55.640;37.692;2022-11-02T13:13:37;99042.66;;;1.20;78.55
61484;BME280;47349;55.640;37.692;2022-11-02T13:16:07;99028.75;;;1.18;78.76
61484;BME280;47349;55.640;37.692;2022-11-02T13:18:45;99032.03;;;1.10;78.37
61484;BME280;47349;55.640;37.692;2022-11-02T13:21:17;99049.00;;;1.08;78.27
61484;BME280;47349;55.640;37.692;2022-11-02T13:23:51;99047.00;;;1.00;78.51
61484;BME280;47349;55.640;37.692;2022-11-02T13:26:33;99063.69;;;0.80;79.03
61484;BME280;47349;55.640;37.692;2022-11-02T13:31:37;99065.16;;;0.72;79.09
61484;BME280;47349;55.640;37.692;2022-11-02T13:34:13;99068.19;;;0.68;79.63
61484;BME280;47349;55.640;37.692;2022-11-02T13:36:41;99062.44;;;0.63;79.76
61484;BME280;47349;55.640;37.692;2022-11-02T13:39:36;99070.25;;;0.64;79.96
61484;BME280;47349;55.640;37.692;2022-11-02T13:49:50;99093.00;;;0.44;80.63
61484;BME280;47349;55.640;37.692;2022-11-02T13:52:44;99071.69;;;0.36;80.42
61484;BME280;47349;55.640;37.692;2022-11-02T13:55:26;99054.38;;;0.43;80.44
61484;BME280;47349;55.640;37.692;2022-11-02T13:57:59;99062.56;;;0.40;81.02
61484;BME280;47349;55.640;37.692;2022-11-02T14:00:35;99055.94;;;0.46;81.37
61484;BME280;47349;55.640;37.692;2022-11-02T14:03:27;99071.94;;;0.33;80.56
61484;BME280;47349;55.640;37.692;2022-11-02T14:05:58;99081.25;;;0.37;80.57
61484;BME280;47349;55.640;37.692;2022-11-02T14:08:35;99061.19;;;0.25;80.70
61484;BME280;47349;55.640;37.692;2022-11-02T14:27:03;99074.63;;;0.22;82.24
61484;BME280;47349;55.640;37.692;2022-11-02T14:33:23;99090.09;;;0.47;81.56
61484;BME280;47349;55.640;37.692;2022-11-02T14:35:39;99066.28;;;0.38;81.94
61484;BME280;47349;55.640;37.692;2022-11-02T14:41:47;99068.81;;;0.39;81.56
61484;BME280;47349;55.640;37.692;2022-11-02T14:47:13;99075.53;;;0.32;81.45
61484;BME280;47349;55.640;37.692;2022-11-02T14:49:49;99071.47;;;0.28;82.14
61484;BME280;47349;55.640;37.692;2022-11-02T14:52:29;99067.53;;;0.22;81.97
61484;BME280;47349;55.640;37.692;2022-11-02T14:55:33;99080.94;;;0.31;82.51
61484;BME280;47349;55.640;37.692;2022-11-02T14:58:17;99076.50;;;0.31;81.76
61484;BME280;47349;55.640;37.692;2022-11-02T15:03:34;99092.00;;;0.13;82.39
61484;BME280;47349;55.640;37.692;2022-11-02T15:06:12;99076.66;;;0.18;81.92
61484;BME280;47349;55.640;37.692;2022-11-02T15:11:49;99081.91;;;-0.25;83.05
61484;BME280;47349;55.640;37.692;2022-11-02T15:27:44;99059.66;;;-0.32;85.00
61484;BME280;47349;55.640;37.692;2022-11-02T15:30:19;99055.22;;;-0.32;83.75
61484;BME280;47349;55.640;37.692;2022-11-02T15:32:58;99069.22;;;-0.31;83.93
61484;BME280;47349;55.640;37.692;2022-11-02T15:35:40;99068.63;;;-0.35;83.94
61484;BME280;47349;55.640;37.692;2022-11-02T15:38:11;99047.00;;;-0.49;84.27
61484;BME280;47349;55.640;37.692;2022-11-02T15:49:20;99087.19;;;-0.36;84.02
61484;BME280;47349;55.640;37.692;2022-11-02T15:57:44;99099.28;;;-0.45;83.82
61484;BME280;47349;55.640;37.692;2022-11-02T16:00:18;99056.47;;;-0.69;84.12
61484;BME280;47349;55.640;37.692;2022-11-02T16:02:49;99067.09;;;-0.48;84.91
61484;BME280;47349;55.640;37.692;2022-11-02T16:05:33;99100.09;;;-0.22;83.82
61484;BME280;47349;55.640;37.692;2022-11-02T16:08:24;99083.97;;;-0.40;83.58
61484;BME280;47349;55.640;37.692;2022-11-02T16:11:12;99085.53;;;-0.37;83.43
61484;BME280;47349;55.640;37.692;2022-11-02T16:13:44;99111.97;;;-0.28;83.63
61484;BME280;47349;55.640;37.692;2022-11-02T16:16:46;99091.00;;;-0.18;82.81
61484;BME280;47349;55.640;37.692;2022-11-02T16:19:17;99091.38;;;-0.22;82.54
61484;BME280;47349;55.640;37.692;2022-11-02T16:21:47;99102.97;;;-0.14;82.61
61484;BME280;47349;55.640;37.692;2022-11-02T16:24:15;99080.72;;;-0.32;82.51
61484;BME280;47349;55.640;37.692;2022-11-02T16:26:43;99097.94;;;-0.17;83.47
61484;BME280;47349;55.640;37.692;2022-11-02T16:29:23;99105.13;;;-0.19;82.75
61484;BME280;47349;55.640;37.692;2022-11-02T16:31:53;99095.06;;;-0.25;82.30
61484;BME280;47349;55.640;37.692;2022-11-02T16:34:29;99091.41;;;-0.34;82.46